Time;durP1;ratioP1;P1;durP2;ratioP2;P2;SDS_P1;SDS_P2;PMS_P1;PMS_P2;Temp;Humidity;BMP_temperature;BMP_pressure;BME280_temperature;BME280_humidity;BME280_pressure;Samples;Min_cycle;Max_cycle;Signal;HPM_P1;HPM_P2
2023/05/31 00:01:42;;;;;;;7.43;2.45;;;;;;;17.55;48.95;102457.63;6189881;23;20029;-64
2023/05/31 00:04:10;;;;;;;4.53;2.53;;;;;;;17.55;48.88;102449.47;6190532;23;20187;-64
2023/05/31 00:06:38;;;;;;;3.10;2.35;;;;;;;17.54;48.89;102460.56;6190965;23;20133;-64
2023/05/31 00:09:06;;;;;;;3.55;2.53;;;;;;;17.53;48.91;102456.19;6190410;23;20056;-62
2023/05/31 00:11:33;;;;;;;3.95;2.60;;;;;;;17.51;48.91;102459.13;6189140;23;20028;-63
2023/05/31 00:14:01;;;;;;;4.63;2.63;;;;;;;17.49;49.13;102450.38;6189868;23;20087;-63
2023/05/31 00:16:30;;;;;;;3.25;2.30;;;;;;;17.47;49.20;102455.22;6190458;23;20025;-64
2023/05/31 00:19:18;;;;;;;6.13;2.33;;;;;;;17.46;49.31;102458.16;6188917;23;20067;-63
2023/05/31 00:21:47;;;;;;;4.43;2.75;;;;;;;17.44;49.33;102455.69;6188034;23;20032;-64
2023/05/31 00:24:17;;;;;;;5.00;2.88;;;;;;;17.32;49.25;102435.78;6189074;23;20029;-64
2023/05/31 00:26:45;;;;;;;9.60;2.65;;;;;;;17.38;49.45;102456.59;6189306;23;20025;-64
2023/05/31 00:29:12;;;;;;;5.03;2.22;;;;;;;17.39;49.42;102455.53;6191900;23;20021;-64
2023/05/31 00:31:43;;;;;;;3.03;2.28;;;;;;;17.37;49.31;102446.78;6191750;23;20057;-64
2023/05/31 00:34:11;;;;;;;3.35;2.30;;;;;;;17.35;49.60;102451.59;6191744;23;20029;-64
2023/05/31 00:36:39;;;;;;;5.07;2.30;;;;;;;17.35;49.47;102450.78;6191438;23;20084;-64
2023/05/31 00:39:07;;;;;;;2.80;2.22;;;;;;;17.34;49.62;102452.66;6194577;23;20485;-65
2023/05/31 00:41:35;;;;;;;4.47;2.80;;;;;;;17.32;49.39;102453.97;6193789;23;20025;-65
2023/05/31 00:44:03;;;;;;;3.88;2.15;;;;;;;17.31;49.57;102455.03;6194567;23;20049;-64
2023/05/31 00:46:33;;;;;;;4.50;2.80;;;;;;;17.29;49.57;102452.56;6194620;23;20025;-64
2023/05/31 00:49:03;;;;;;;3.15;2.38;;;;;;;17.30;49.70;102456.09;6194021;23;20332;-64
2023/05/31 00:51:32;;;;;;;3.60;2.53;;;;;;;17.28;49.81;102459.03;6193850;23;20032;-63
2023/05/31 00:54:01;;;;;;;6.75;2.40;;;;;;;17.27;49.64;102462.00;6194770;23;20075;-64
2023/05/31 00:56:29;;;;;;;3.17;2.35;;;;;;;17.23;49.61;102456.19;6192990;23;20025;-64
2023/05/31 00:58:58;;;;;;;4.22;2.97;;;;;;;17.17;49.97;102460.63;6194525;23;20025;-63
2023/05/31 01:01:27;;;;;;;4.10;2.58;;;;;;;17.19;49.97;102465.84;6191693;23;20091;-64
2023/05/31 01:03:56;;;;;;;3.92;2.75;;;;;;;17.07;50.12;102440.47;6192669;23;20024;-65
2023/05/31 01:06:25;;;;;;;5.82;3.30;;;;;;;17.16;50.05;102461.69;6191064;23;20355;-64
2023/05/31 01:08:53;;;;;;;7.05;2.38;;;;;;;17.16;49.96;102469.00;6192121;23;20032;-64
2023/05/31 01:11:31;;;;;;;4.30;2.50;;;;;;;17.14;49.87;102460.25;6189564;23;20029;-64
2023/05/31 01:14:07;;;;;;;4.50;2.70;;;;;;;17.13;50.12;102455.88;6190550;23;20029;-64
2023/05/31 01:16:42;;;;;;;4.35;2.50;;;;;;;17.13;50.12;102464.03;6190873;23;20079;-64
2023/05/31 01:19:32;;;;;;;3.38;2.63;;;;;;;17.11;50.11;102461.53;6191288;23;20052;-63
2023/05/31 01:22:14;;;;;;;4.60;2.65;;;;;;;17.10;50.20;102472.63;6189622;23;20021;-64
2023/05/31 01:24:52;;;;;;;6.93;2.60;;;;;;;17.07;50.08;102467.63;6192239;23;20021;-64
2023/05/31 01:27:23;;;;;;;3.63;2.50;;;;;;;17.06;50.04;102471.41;6190693;23;20056;-65
2023/05/31 01:29:51;;;;;;;3.30;2.50;;;;;;;17.05;50.34;102472.47;6191795;23;20075;-64
2023/05/31 01:32:21;;;;;;;4.03;2.38;;;;;;;17.00;50.33;102461.44;6191495;23;20726;-64
2023/05/31 01:34:49;;;;;;;4.72;2.60;;;;;;;17.02;50.44;102457.44;6192450;23;20450;-64
2023/05/31 01:37:17;;;;;;;5.32;2.50;;;;;;;17.01;50.37;102454.97;6191580;23;20407;-63
2023/05/31 01:39:46;;;;;;;4.10;2.50;;;;;;;17.00;50.49;102454.13;6192883;23;20032;-63
2023/05/31 01:42:14;;;;;;;3.10;2.35;;;;;;;16.98;50.34;102448.09;6191679;23;20044;-63
2023/05/31 01:44:45;;;;;;;6.60;2.83;;;;;;;16.98;50.55;102453.53;6192615;23;20080;-63
2023/05/31 01:47:13;;;;;;;4.20;2.67;;;;;;;16.97;50.61;102451.88;6191756;23;20035;-63
2023/05/31 01:49:42;;;;;;;4.38;2.53;;;;;;;16.95;50.72;102456.69;6190284;23;20025;-64
2023/05/31 01:52:14;;;;;;;4.13;2.67;;;;;;;16.94;50.64;102455.03;6189545;23;20474;-63
2023/05/31 01:54:42;;;;;;;5.07;3.08;;;;;;;16.94;50.58;102449.59;6191369;23;20032;-63
2023/05/31 01:57:11;;;;;;;3.88;2.30;;;;;;;16.90;50.86;102457.38;6190187;23;20036;-64
2023/05/31 01:59:40;;;;;;;4.63;2.72;;;;;;;16.89;50.79;102450.28;6190711;23;20032;-63
2023/05/31 02:02:10;;;;;;;5.28;2.90;;;;;;;16.89;51.04;102446.72;6191315;23;20021;-63
2023/05/31 02:04:38;;;;;;;7.20;3.17;;;;;;;16.86;51.24;102452.59;6191171;23;20471;-63
2023/05/31 02:07:06;;;;;;;5.40;3.05;;;;;;;16.85;51.13;102442.81;6190056;23;20028;-64
2023/05/31 02:09:33;;;;;;;4.93;2.88;;;;;;;16.81;50.96;102447.84;6190966;23;20082;-63
2023/05/31 02:12:01;;;;;;;4.85;2.88;;;;;;;16.79;51.35;102444.53;6189721;23;20033;-64
2023/05/31 02:14:29;;;;;;;6.13;2.80;;;;;;;16.78;51.33;102442.03;6191194;23;20025;-62
2023/05/31 02:16:57;;;;;;;4.22;3.00;;;;;;;16.76;51.57;102436.00;6191015;23;20025;-63
2023/05/31 02:19:26;;;;;;;4.93;2.85;;;;;;;16.74;51.51;102432.69;6190646;23;20033;-63
2023/05/31 02:21:54;;;;;;;3.85;2.88;;;;;;;16.72;51.26;102429.34;6189161;23;20029;-63
2023/05/31 02:24:22;;;;;;;5.35;3.03;;;;;;;16.70;51.71;102432.28;6191904;23;20025;-64
2023/05/31 02:26:50;;;;;;;5.45;2.80;;;;;;;16.70;51.79;102431.47;6189702;23;20025;-63
2023/05/31 02:29:18;;;;;;;5.82;3.20;;;;;;;16.70;51.80;102426.88;6190685;23;20463;-65
2023/05/31 02:31:45;;;;;;;11.38;3.33;;;;;;;16.67;51.75;102434.63;6190095;23;20025;-63
2023/05/31 02:34:15;;;;;;;5.70;3.33;;;;;;;16.67;51.91;102440.88;6191799;23;20021;-64
2023/05/31 02:36:44;;;;;;;4.40;3.03;;;;;;;16.67;51.87;102448.19;6191496;23;20040;-63
2023/05/31 02:39:12;;;;;;;6.47;3.08;;;;;;;16.67;51.87;102443.59;6191270;23;20029;-63
2023/05/31 02:41:40;;;;;;;5.10;3.33;;;;;;;16.65;51.74;102442.16;6189786;23;20029;-64
2023/05/31 02:44:07;;;;;;;4.97;3.33;;;;;;;16.62;51.61;102446.13;6190467;23;20095;-64
2023/05/31 02:46:35;;;;;;;3.90;2.97;;;;;;;16.63;51.88;102441.53;6191057;23;20025;-64
2023/05/31 02:49:03;;;;;;;6.32;4.20;;;;;;;16.60;52.05;102440.91;6191151;23;20028;-62
2023/05/31 02:51:31;;;;;;;5.25;2.65;;;;;;;16.58;51.97;102442.19;6190229;23;20032;-63
2023/05/31 02:54:00;;;;;;;4.65;3.20;;;;;;;16.57;51.87;102444.06;6190548;23;20029;-63
2023/05/31 02:56:28;;;;;;;8.88;3.28;;;;;;;16.56;52.11;102437.00;6190492;23;20025;-66
2023/05/31 02:58:56;;;;;;;4.20;2.92;;;;;;;16.56;51.95;102441.59;6191825;23;20091;-63
2023/05/31 03:01:23;;;;;;;6.97;3.42;;;;;;;16.55;52.14;102445.34;6190436;23;20025;-65
2023/05/31 03:03:51;;;;;;;5.35;3.17;;;;;;;16.53;52.28;102442.84;6190061;23;20051;-64
2023/05/31 03:06:19;;;;;;;4.18;3.00;;;;;;;16.54;52.09;102438.25;6189314;23;21241;-64
2023/05/31 03:08:48;;;;;;;4.65;2.90;;;;;;;16.54;52.08;102440.97;6191945;23;20029;-63
2023/05/31 03:11:17;;;;;;;4.97;3.28;;;;;;;16.53;52.01;102439.31;6189494;23;20025;-64
2023/05/31 03:13:45;;;;;;;7.20;4.03;;;;;;;16.52;52.08;102446.63;6190590;23;20025;-64
2023/05/31 03:16:12;;;;;;;5.32;3.55;;;;;;;16.51;52.10;102442.25;6191420;23;20025;-62
2023/05/31 03:18:40;;;;;;;4.65;2.90;;;;;;;16.51;52.09;102444.13;6192762;23;20058;-64
2023/05/31 03:21:08;;;;;;;5.50;3.22;;;;;;;16.50;52.09;102447.91;6192878;23;20100;-62
2023/05/31 03:23:36;;;;;;;4.10;2.90;;;;;;;16.49;52.11;102438.94;6191465;23;20033;-64
2023/05/31 03:26:05;;;;;;;4.82;3.00;;;;;;;16.48;52.10;102444.59;6190022;23;20032;-63
2023/05/31 03:28:34;;;;;;;4.95;3.42;;;;;;;16.45;52.27;102445.84;6191141;23;20031;-64
2023/05/31 03:31:02;;;;;;;5.25;3.60;;;;;;;16.45;52.31;102442.31;6192748;23;20021;-64
2023/05/31 03:33:31;;;;;;;9.50;3.60;;;;;;;16.43;52.27;102439.00;6192553;23;20025;-63
2023/05/31 03:35:59;;;;;;;5.47;3.80;;;;;;;16.42;52.28;102437.31;6191562;23;20025;-63
2023/05/31 03:38:26;;;;;;;5.93;3.03;;;;;;;16.40;52.48;102434.84;6192448;23;20359;-64
2023/05/31 03:40:54;;;;;;;4.90;3.30;;;;;;;16.39;52.28;102441.31;6192450;23;20025;-64
2023/05/31 03:43:22;;;;;;;4.80;3.22;;;;;;;16.38;52.47;102439.66;6192562;23;20463;-64
2023/05/31 03:45:51;;;;;;;7.13;3.92;;;;;;;16.37;52.55;102445.31;6192114;23;20455;-64
2023/05/31 03:48:19;;;;;;;6.97;3.85;;;;;;;16.34;52.59;102430.28;6193526;23;20040;-64
2023/05/31 03:50:47;;;;;;;7.13;3.20;;;;;;;16.35;52.24;102433.84;6192607;23;20411;-63
2023/05/31 03:53:15;;;;;;;7.45;4.18;;;;;;;16.33;52.64;102439.47;6192122;23;20025;-63
2023/05/31 03:55:42;;;;;;;4.90;3.20;;;;;;;16.32;52.88;102440.53;6190844;23;20040;-64
2023/05/31 03:58:10;;;;;;;7.75;4.40;;;;;;;16.30;53.20;102439.09;6193488;23;20020;-64
2023/05/31 04:00:38;;;;;;;6.10;3.15;;;;;;;16.26;52.61;102439.53;6191975;23;20048;-64
2023/05/31 04:03:07;;;;;;;6.03;4.10;;;;;;;16.21;53.14;102441.25;6193440;23;20032;-64
2023/05/31 04:05:35;;;;;;;7.63;3.85;;;;;;;16.23;52.83;102452.72;6192931;23;20025;-63
2023/05/31 04:08:04;;;;;;;6.45;3.40;;;;;;;16.20;53.05;102440.41;6192719;23;20029;-60
2023/05/31 04:10:33;;;;;;;6.30;4.28;;;;;;;16.21;53.22;102438.53;6191952;23;20029;-62
2023/05/31 04:13:01;;;;;;;5.78;3.78;;;;;;;16.20;53.22;102442.31;6193653;23;20036;-62
2023/05/31 04:15:28;;;;;;;5.40;3.85;;;;;;;16.19;53.16;102440.63;6191915;23;20121;-64
2023/05/31 04:17:56;;;;;;;6.45;4.50;;;;;;;16.17;52.98;102435.44;6192588;23;20029;-63
2023/05/31 04:20:26;;;;;;;7.57;3.45;;;;;;;16.16;53.10;102444.63;6191806;23;20039;-63
2023/05/31 04:22:54;;;;;;;5.75;3.88;;;;;;;16.15;53.17;102434.81;6191845;23;20035;-64
2023/05/31 04:25:22;;;;;;;4.93;3.30;;;;;;;16.13;52.99;102442.34;6192703;23;20112;-65
2023/05/31 04:27:50;;;;;;;7.20;4.25;;;;;;;16.13;53.39;102442.34;6193793;23;20035;-64
2023/05/31 04:30:18;;;;;;;7.95;4.57;;;;;;;16.10;53.52;102441.97;6193921;23;20029;-65
2023/05/31 04:32:46;;;;;;;4.63;3.63;;;;;;;16.12;53.45;102443.41;6192167;23;20128;-64
2023/05/31 04:35:14;;;;;;;5.97;3.55;;;;;;;16.11;53.42;102447.16;6190859;23;20052;-64
2023/05/31 04:37:43;;;;;;;5.13;3.60;;;;;;;16.10;53.17;102442.78;6191203;23;20091;-62
2023/05/31 04:40:13;;;;;;;7.32;3.92;;;;;;;16.09;53.40;102435.69;6192209;23;20146;-62
2023/05/31 04:42:42;;;;;;;5.97;3.65;;;;;;;16.09;53.31;102435.69;6193658;23;20402;-64
2023/05/31 04:45:10;;;;;;;5.45;4.03;;;;;;;16.07;53.55;102431.53;6193135;23;20024;-64
2023/05/31 04:47:38;;;;;;;7.18;4.10;;;;;;;16.08;53.47;102433.22;6192227;23;20033;-63
2023/05/31 04:50:06;;;;;;;6.03;4.25;;;;;;;16.07;53.51;102431.53;6192196;23;20371;-64
2023/05/31 04:52:34;;;;;;;10.82;5.18;;;;;;;16.08;53.40;102444.88;6191515;23;20025;-64
2023/05/31 04:55:04;;;;;;;7.28;4.07;;;;;;;16.09;53.61;102440.28;6193460;23;20056;-65
2023/05/31 04:57:32;;;;;;;6.63;4.15;;;;;;;16.08;52.82;102441.34;6193117;23;20028;-66
2023/05/31 05:00:00;;;;;;;6.22;4.07;;;;;;;16.07;53.41;102442.41;6195085;23;20095;-65
2023/05/31 05:02:27;;;;;;;7.05;3.92;;;;;;;16.08;53.34;102433.22;6194110;23;20071;-66
2023/05/31 05:04:55;;;;;;;5.10;3.75;;;;;;;16.10;52.82;102431.94;6194586;23;20060;-65
2023/05/31 05:07:23;;;;;;;8.65;4.10;;;;;;;16.12;52.85;102432.56;6192142;23;20029;-64
2023/05/31 05:09:51;;;;;;;8.57;4.32;;;;;;;16.14;52.43;102435.03;6194644;23;20116;-64
2023/05/31 05:12:20;;;;;;;8.43;3.92;;;;;;;16.15;52.50;102434.00;6192993;23;20044;-64
2023/05/31 05:14:48;;;;;;;6.38;3.97;;;;;;;16.16;52.66;102441.06;6193192;23;20029;-63
2023/05/31 05:17:15;;;;;;;7.22;4.10;;;;;;;16.16;52.80;102443.78;6191219;23;20025;-68
2023/05/31 05:19:43;;;;;;;4.85;3.40;;;;;;;16.18;52.86;102444.41;6192717;23;20025;-66
2023/05/31 05:22:11;;;;;;;6.60;4.50;;;;;;;16.19;52.76;102446.91;6190615;23;20088;-64
2023/05/31 05:24:39;;;;;;;5.03;3.50;;;;;;;16.21;52.96;102449.38;6195280;23;22304;-63
2023/05/31 05:27:07;;;;;;;9.07;4.40;;;;;;;16.23;52.99;102455.44;6192848;23;20049;-63
2023/05/31 05:29:36;;;;;;;6.50;4.03;;;;;;;16.23;53.07;102458.13;6193152;23;21627;-64
2023/05/31 05:32:05;;;;;;;8.00;4.28;;;;;;;16.25;53.12;102458.75;6190692;23;20025;-67
2023/05/31 05:34:33;;;;;;;8.02;4.43;;;;;;;16.27;53.21;102465.63;6192050;23;20316;-63
2023/05/31 05:37:01;;;;;;;6.35;4.25;;;;;;;16.31;53.29;102452.44;6191455;23;20025;-64
2023/05/31 05:39:28;;;;;;;6.57;4.55;;;;;;;16.31;53.20;102457.88;6192626;23;20091;-63
2023/05/31 05:41:56;;;;;;;11.45;4.18;;;;;;;16.33;53.19;102454.94;6188551;23;20029;-63
2023/05/31 05:44:24;;;;;;;6.88;4.20;;;;;;;16.34;53.19;102459.31;6185741;23;20684;-63
2023/05/31 05:46:53;;;;;;;8.80;4.20;;;;;;;16.35;53.44;102452.81;6186350;23;20029;-63
2023/05/31 05:49:21;;;;;;;7.25;4.30;;;;;;;16.36;53.55;102455.31;6185973;23;20032;-65
2023/05/31 05:51:48;;;;;;;6.63;4.40;;;;;;;16.36;53.62;102452.59;6185293;23;20025;-64
2023/05/31 05:54:16;;;;;;;6.40;4.55;;;;;;;16.37;53.55;102448.00;6186665;23;20059;-64
2023/05/31 05:56:44;;;;;;;8.57;4.38;;;;;;;16.40;53.54;102451.13;6185218;23;20031;-62
2023/05/31 05:59:12;;;;;;;7.18;4.32;;;;;;;16.42;53.53;102454.44;6185883;23;20051;-62
2023/05/31 06:01:40;;;;;;;7.60;3.92;;;;;;;16.44;53.58;102459.66;6186761;23;20025;-65
2023/05/31 06:04:10;;;;;;;7.45;4.72;;;;;;;16.47;53.61;102464.63;6186266;23;20043;-62
2023/05/31 06:06:37;;;;;;;7.55;3.95;;;;;;;16.49;53.50;102452.50;6185728;23;20025;-64
2023/05/31 06:09:05;;;;;;;6.38;4.22;;;;;;;16.51;53.48;102458.53;6186595;23;20491;-63
2023/05/31 06:11:33;;;;;;;6.05;4.43;;;;;;;16.53;53.44;102442.03;6185615;23;20395;-63
2023/05/31 06:14:01;;;;;;;7.28;4.00;;;;;;;16.56;53.29;102449.72;6187284;23;20056;-63
2023/05/31 06:16:29;;;;;;;8.20;4.65;;;;;;;16.64;54.40;102454.03;6190797;23;20029;-63
2023/05/31 06:18:57;;;;;;;9.77;5.07;;;;;;;16.50;54.36;102454.16;6191291;23;20208;-64
2023/05/31 06:21:26;;;;;;;10.45;4.88;;;;;;;16.49;54.20;102457.94;6189603;23;20029;-63
2023/05/31 06:23:54;;;;;;;7.18;4.60;;;;;;;16.52;54.17;102459.38;6191393;23;20052;-63
2023/05/31 06:26:22;;;;;;;9.75;4.57;;;;;;;16.47;54.12;102446.47;6189682;23;20024;-63
2023/05/31 06:28:50;;;;;;;12.68;5.05;;;;;;;16.59;54.08;102454.72;6143674;23;1083862;-63
2023/05/31 06:31:18;;;;;;;9.32;4.63;;;;;;;16.64;53.90;102456.75;6190330;23;20056;-63
2023/05/31 06:33:46;;;;;;;7.78;4.60;;;;;;;16.66;53.98;102458.22;6190994;23;20037;-63
2023/05/31 06:36:14;;;;;;;7.80;4.45;;;;;;;16.70;53.85;102458.63;6189765;23;20029;-64
2023/05/31 06:38:46;;;;;;;8.82;4.35;;;;;;;16.72;53.74;102465.47;6189643;23;20028;-65
2023/05/31 06:41:14;;;;;;;7.50;4.10;;;;;;;16.77;53.69;102465.66;6187704;23;20029;-68
2023/05/31 06:43:41;;;;;;;7.03;3.53;;;;;;;16.80;53.65;102461.66;6185990;23;20033;-64
2023/05/31 06:46:11;;;;;;;5.72;3.63;;;;;;;16.83;53.31;102456.59;6185469;23;20340;-65
2023/05/31 06:48:40;;;;;;;9.20;3.58;;;;;;;16.88;53.31;102461.34;6189460;23;20025;-64
2023/05/31 06:51:08;;;;;;;9.25;4.15;;;;;;;16.91;53.43;102455.47;6188945;23;20363;-64
2023/05/31 06:53:36;;;;;;;7.05;3.95;;;;;;;16.94;53.34;102467.78;6187353;23;20029;-64
2023/05/31 06:56:05;;;;;;;6.50;3.45;;;;;;;16.95;53.37;102464.84;6188641;23;20060;-64
2023/05/31 06:58:33;;;;;;;7.05;4.20;;;;;;;16.96;53.44;102463.78;6189758;23;20025;-66
2023/05/31 07:01:01;;;;;;;9.85;4.30;;;;;;;16.98;53.47;102467.09;6188724;23;20052;-65
2023/05/31 07:03:29;;;;;;;8.02;4.18;;;;;;;16.91;53.65;102453.59;6188718;23;20029;-65
2023/05/31 07:05:57;;;;;;;8.88;4.47;;;;;;;17.01;53.52;102463.09;6188164;23;20076;-63
2023/05/31 07:08:25;;;;;;;7.95;3.95;;;;;;;17.03;53.44;102458.28;6188653;23;20025;-64
2023/05/31 07:10:54;;;;;;;8.10;4.20;;;;;;;17.05;53.45;102464.31;6189419;23;20079;-64
2023/05/31 07:13:23;;;;;;;6.20;4.07;;;;;;;17.07;53.49;102465.75;6190720;23;20056;-65
2023/05/31 07:15:50;;;;;;;10.85;4.65;;;;;;;17.09;53.51;102466.38;6190402;23;20025;-64
2023/05/31 07:18:18;;;;;;;6.78;4.13;;;;;;;17.10;53.36;102467.19;6191220;23;20036;-64
2023/05/31 07:20:46;;;;;;;8.13;4.88;;;;;;;17.11;53.60;102450.66;6190169;23;20379;-64
2023/05/31 07:23:14;;;;;;;7.28;4.57;;;;;;;17.11;53.83;102455.28;6190912;23;20053;-64
2023/05/31 07:25:42;;;;;;;7.75;4.65;;;;;;;17.10;53.76;102451.72;6191148;23;20379;-64
2023/05/31 07:28:11;;;;;;;8.23;4.72;;;;;;;17.12;53.68;102454.22;6192446;23;20084;-63
2023/05/31 07:30:40;;;;;;;9.20;4.45;;;;;;;17.12;53.72;102455.03;6191079;23;20025;-64
2023/05/31 07:33:08;;;;;;;10.82;4.93;;;;;;;17.14;53.70;102452.09;6192227;23;20025;-64
2023/05/31 07:35:36;;;;;;;9.10;4.63;;;;;;;17.14;53.82;102442.06;6193543;23;20025;-64
2023/05/31 07:38:04;;;;;;;9.10;4.78;;;;;;;17.16;53.93;102448.09;6191705;23;20025;-63
2023/05/31 07:40:32;;;;;;;11.23;4.82;;;;;;;17.17;53.80;102444.31;6192019;23;20055;-63
2023/05/31 07:42:59;;;;;;;7.47;4.10;;;;;;;17.19;53.79;102447.66;6192568;23;20025;-64
2023/05/31 07:45:27;;;;;;;12.63;4.85;;;;;;;17.21;53.79;102444.69;6192049;23;20502;-64
2023/05/31 07:47:57;;;;;;;9.90;4.13;;;;;;;17.22;53.63;102444.47;6190844;23;20035;-62
2023/05/31 07:50:25;;;;;;;6.32;4.25;;;;;;;17.24;53.64;102438.81;6191043;23;20051;-66
2023/05/31 07:52:53;;;;;;;7.18;4.75;;;;;;;17.25;53.87;102440.47;6190227;23;20107;-64
2023/05/31 07:55:21;;;;;;;10.80;4.40;;;;;;;17.24;53.81;102450.50;6190670;23;20044;-65
2023/05/31 07:57:49;;;;;;;9.85;4.57;;;;;;;17.25;53.93;102451.34;6191194;23;20422;-66
2023/05/31 08:00:17;;;;;;;9.90;4.70;;;;;;;17.27;53.99;102440.25;6191444;23;20048;-67
2023/05/31 08:02:45;;;;;;;13.60;4.78;;;;;;;17.27;53.99;102438.34;6190197;23;20035;-65
2023/05/31 08:05:15;;;;;;;18.25;5.70;;;;;;;17.29;54.00;102436.25;6190883;23;20029;-63
2023/05/31 08:07:42;;;;;;;7.32;3.92;;;;;;;17.30;54.17;102428.91;6192118;23;20025;-65
2023/05/31 08:10:11;;;;;;;10.85;4.78;;;;;;;17.31;54.20;102436.84;6190995;23;20029;-64
2023/05/31 08:12:39;;;;;;;8.30;4.15;;;;;;;17.34;54.22;102425.50;6191092;23;20133;-64
2023/05/31 08:15:08;;;;;;;11.27;4.80;;;;;;;17.36;53.83;102434.25;6189302;23;20029;-64
2023/05/31 08:17:36;;;;;;;6.78;4.20;;;;;;;17.38;53.98;102428.56;6189635;23;20028;-64
2023/05/31 08:20:06;;;;;;;9.68;4.80;;;;;;;17.40;54.20;102429.19;6189761;23;20100;-65
2023/05/31 08:22:35;;;;;;;9.30;5.07;;;;;;;17.41;54.33;102434.38;6188910;23;20083;-65
2023/05/31 08:25:03;;;;;;;10.55;4.32;;;;;;;17.44;54.29;102425.78;6191808;23;20087;-64
2023/05/31 08:27:31;;;;;;;10.48;4.80;;;;;;;17.46;54.37;102422.84;6190660;23;20025;-65
2023/05/31 08:29:58;;;;;;;8.13;4.50;;;;;;;17.48;54.47;102429.69;6190304;23;20052;-64
2023/05/31 08:32:26;;;;;;;6.35;3.90;;;;;;;17.53;54.24;102424.41;6190551;23;20032;-65
2023/05/31 08:34:54;;;;;;;9.35;4.47;;;;;;;17.56;54.33;102421.22;6191336;23;20036;-65
2023/05/31 08:37:22;;;;;;;8.40;4.45;;;;;;;17.60;54.46;102418.88;6190134;23;20040;-65
2023/05/31 08:39:51;;;;;;;7.55;3.90;;;;;;;17.63;54.23;102423.84;6192249;23;20029;-64
2023/05/31 08:42:25;;;;;;;11.50;5.10;;;;;;;17.62;54.45;102411.31;6190249;23;20045;-65
2023/05/31 08:44:53;;;;;;;8.15;4.60;;;;;;;17.68;54.19;102420.47;6191022;23;20047;-66
2023/05/31 08:47:26;;;;;;;6.22;4.40;;;;;;;17.70;54.43;102415.63;6191170;23;20352;-64
2023/05/31 08:49:55;;;;;;;6.63;4.18;;;;;;;17.72;54.36;102417.06;6190649;23;20056;-64
2023/05/31 08:52:24;;;;;;;7.93;3.78;;;;;;;17.76;54.27;102406.56;6188813;23;20099;-64
2023/05/31 08:54:54;;;;;;;10.68;5.07;;;;;;;17.79;54.41;102411.53;6189939;23;20031;-65
2023/05/31 08:57:22;;;;;;;7.15;4.47;;;;;;;17.82;54.18;102408.34;6190162;23;20024;-65
2023/05/31 08:59:51;;;;;;;6.97;4.05;;;;;;;17.84;54.17;102403.50;6194081;23;20387;-65
2023/05/31 09:02:20;;;;;;;7.35;4.22;;;;;;;17.88;54.31;102404.69;6194272;23;20021;-65
2023/05/31 09:04:49;;;;;;;9.07;3.90;;;;;;;17.91;54.26;102403.41;6193908;23;20445;-65
2023/05/31 09:07:16;;;;;;;10.35;4.72;;;;;;;17.93;54.34;102410.28;6192353;23;20025;-66
2023/05/31 09:09:44;;;;;;;11.48;3.92;;;;;;;17.96;54.14;102398.91;6194749;23;20029;-66
2023/05/31 09:12:13;;;;;;;10.55;4.68;;;;;;;17.91;54.21;102393.34;6192651;23;20024;-64
2023/05/31 09:14:41;;;;;;;12.93;4.15;;;;;;;18.02;54.29;102398.00;6192920;23;20025;-65
2023/05/31 09:17:09;;;;;;;6.05;3.55;;;;;;;18.04;54.16;102392.31;6193890;23;20025;-65
2023/05/31 09:19:41;;;;;;;6.00;3.58;;;;;;;18.07;54.19;102398.13;6193873;23;20025;-65
2023/05/31 09:22:09;;;;;;;8.10;4.03;;;;;;;18.09;54.02;102390.56;6189814;23;20033;-64
2023/05/31 09:24:38;;;;;;;7.22;3.78;;;;;;;18.11;54.11;102382.97;6191859;23;20027;-65
2023/05/31 09:27:06;;;;;;;12.43;6.07;;;;;;;18.15;54.17;102383.34;6191307;23;20052;-65
2023/05/31 09:29:37;;;;;;;8.10;3.88;;;;;;;18.16;54.00;102388.53;6191213;23;20032;-64
2023/05/31 09:32:09;;;;;;;8.48;4.75;;;;;;;18.10;54.14;102370.44;6191398;23;20032;-63
2023/05/31 09:34:37;;;;;;;8.10;4.45;;;;;;;18.21;54.01;102388.66;6190305;23;20079;-64
2023/05/31 09:37:05;;;;;;;7.90;3.90;;;;;;;18.23;54.05;102384.88;6190224;23;20080;-65
2023/05/31 09:39:33;;;;;;;8.82;3.65;;;;;;;18.26;53.89;102379.81;6192495;23;20029;-64
2023/05/31 09:42:01;;;;;;;9.10;4.05;;;;;;;18.29;53.70;102371.16;6190907;23;20702;-65
2023/05/31 09:44:30;;;;;;;9.43;4.47;;;;;;;18.33;53.89;102368.81;6191199;23;20032;-65
2023/05/31 09:47:08;;;;;;;9.05;3.65;;;;;;;18.38;53.78;102358.03;6191285;23;20025;-65
2023/05/31 09:49:36;;;;;;;11.32;3.30;;;;;;;18.40;53.45;102354.00;6191497;23;20135;-65
2023/05/31 09:52:04;;;;;;;8.00;3.40;;;;;;;18.45;53.29;102361.47;6188437;23;20029;-65
2023/05/31 09:54:38;;;;;;;9.48;3.42;;;;;;;18.49;53.50;102360.75;6190969;23;20024;-65
2023/05/31 09:57:06;;;;;;;8.52;3.85;;;;;;;18.53;53.44;102355.66;6189399;23;20352;-65
2023/05/31 09:59:34;;;;;;;8.90;3.42;;;;;;;18.54;53.43;102355.41;6191600;23;20503;-64
2023/05/31 10:02:04;;;;;;;10.27;5.00;;;;;;;18.58;53.40;102353.03;6191250;23;20072;-64
2023/05/31 10:04:35;;;;;;;7.57;3.20;;;;;;;18.62;53.49;102356.97;6190772;23;20109;-66
2023/05/31 10:07:03;;;;;;;6.55;3.38;;;;;;;18.64;53.27;102351.28;6189489;23;20076;-64
2023/05/31 10:09:32;;;;;;;8.50;3.30;;;;;;;18.65;53.19;102350.22;6190998;23;20025;-64
2023/05/31 10:12:02;;;;;;;13.07;3.83;;;;;;;18.67;52.88;102354.38;6190328;23;20052;-63
2023/05/31 10:14:35;;;;;;;6.32;3.30;;;;;;;18.69;52.92;102346.78;6191085;23;20028;-64
2023/05/31 10:17:11;;;;;;;9.13;3.22;;;;;;;18.70;52.89;102339.44;6190186;23;20028;-64
2023/05/31 10:19:46;;;;;;;8.27;3.45;;;;;;;18.79;52.67;102343.44;6189877;23;20025;-64
2023/05/31 10:22:15;;;;;;;12.80;4.35;;;;;;;18.84;52.74;102340.84;6189983;23;20021;-63
2023/05/31 10:24:51;;;;;;;10.13;3.60;;;;;;;18.91;52.59;102337.97;6192015;23;20031;-63
2023/05/31 10:27:28;;;;;;;10.73;3.58;;;;;;;18.92;52.22;102326.84;6192540;23;20025;-63
2023/05/31 10:30:03;;;;;;;9.70;3.33;;;;;;;18.98;52.51;102325.03;6193953;23;20025;-64
2023/05/31 10:32:34;;;;;;;5.85;2.97;;;;;;;19.00;52.23;102323.75;6193870;23;20039;-63
2023/05/31 10:35:03;;;;;;;6.15;2.75;;;;;;;19.06;52.13;102322.78;6193027;23;20059;-63
2023/05/31 10:37:31;;;;;;;10.25;2.85;;;;;;;19.13;52.22;102311.69;6192572;23;20052;-63
2023/05/31 10:40:07;;;;;;;8.05;3.33;;;;;;;19.19;51.83;102305.28;6190971;23;20037;-63
2023/05/31 10:42:43;;;;;;;9.23;2.83;;;;;;;19.21;51.20;102303.13;6190993;23;20025;-62
2023/05/31 10:45:15;;;;;;;9.97;2.83;;;;;;;19.24;50.89;102312.72;6190977;23;20021;-62
2023/05/31 10:47:54;;;;;;;8.00;2.78;;;;;;;19.32;51.43;102298.69;6190651;23;20032;-61
2023/05/31 10:50:21;;;;;;;7.25;3.05;;;;;;;19.38;50.86;102289.53;6191794;23;20028;-62
2023/05/31 10:52:50;;;;;;;7.45;3.15;;;;;;;19.43;50.96;102293.19;6190312;23;20029;-61
2023/05/31 10:55:19;;;;;;;9.13;3.15;;;;;;;19.52;50.57;102301.81;6190752;23;20324;-62
2023/05/31 10:57:54;;;;;;;9.68;3.78;;;;;;;19.57;50.34;102295.63;6190852;23;21346;-62
2023/05/31 11:00:23;;;;;;;7.32;2.50;;;;;;;19.54;50.18;102280.56;6191426;23;20028;-63
2023/05/31 11:02:55;;;;;;;6.82;2.53;;;;;;;19.63;49.91;102290.00;6190611;23;20032;-62
2023/05/31 11:05:24;;;;;;;5.60;2.33;;;;;;;19.67;49.92;102282.97;6190951;23;20025;-63
2023/05/31 11:07:54;;;;;;;6.55;2.55;;;;;;;19.74;49.88;102293.72;6185925;23;20099;-63
2023/05/31 11:10:27;;;;;;;5.45;2.25;;;;;;;19.86;50.06;102291.75;6189524;23;20021;-63
2023/05/31 11:12:57;;;;;;;10.32;2.85;;;;;;;19.94;49.37;102285.03;6188606;23;20029;-62
2023/05/31 11:15:40;;;;;;;7.88;2.70;;;;;;;20.00;49.21;102287.59;6188009;23;20029;-62
2023/05/31 11:18:14;;;;;;;8.07;2.40;;;;;;;20.05;48.82;102284.13;6190113;23;20029;-63
2023/05/31 11:20:42;;;;;;;6.97;2.55;;;;;;;20.09;48.92;102285.28;6188744;23;20068;-63
2023/05/31 11:23:28;;;;;;;8.55;3.63;;;;;;;20.16;47.93;102277.75;6189110;23;20033;-67
2023/05/31 11:26:16;;;;;;;8.23;2.47;;;;;;;20.28;48.11;102283.91;6189378;23;20108;-63
2023/05/31 11:28:56;;;;;;;6.93;2.50;;;;;;;20.37;48.49;102278.84;6191214;23;20029;-64
2023/05/31 11:31:59;;;;;;;6.40;2.35;;;;;;;20.42;48.79;102287.16;6190705;23;20025;-64
2023/05/31 11:34:30;;;;;;;5.93;2.15;;;;;;;20.44;48.98;102288.53;6182523;23;20029;-63